sensor_id;sensor_type;location;lat;lon;timestamp;temperature;humidity
19880;DHT22;10102;50.828;4.416;2024-02-21T00:02:20;10.80;99.90
19880;DHT22;10102;50.828;4.416;2024-02-21T00:04:45;10.80;99.90
19880;DHT22;10102;50.828;4.416;2024-02-21T00:07:11;11.00;99.90
19880;DHT22;10102;50.828;4.416;2024-02-21T00:09:37;10.80;99.90
19880;DHT22;10102;50.828;4.416;2024-02-21T00:12:03;10.80;99.90
19880;DHT22;10102;50.828;4.416;2024-02-21T00:14:28;11.20;99.90
19880;DHT22;10102;50.828;4.416;2024-02-21T00:16:54;10.90;99.90
19880;DHT22;10102;50.828;4.416;2024-02-21T00:19:20;10.80;99.90
19880;DHT22;10102;50.828;4.416;2024-02-21T00:21:46;10.80;99.90
19880;DHT22;10102;50.828;4.416;2024-02-21T00:24:12;10.90;99.90
19880;DHT22;10102;50.828;4.416;2024-02-21T00:26:37;10.90;99.90
19880;DHT22;10102;50.828;4.416;2024-02-21T00:29:03;10.90;99.90
19880;DHT22;10102;50.828;4.416;2024-02-21T00:31:29;10.80;99.90
19880;DHT22;10102;50.828;4.416;2024-02-21T00:33:55;10.90;99.90
19880;DHT22;10102;50.828;4.416;2024-02-21T00:36:20;11.00;99.90
19880;DHT22;10102;50.828;4.416;2024-02-21T00:38:46;10.90;99.90
19880;DHT22;10102;50.828;4.416;2024-02-21T00:41:11;10.90;99.90
19880;DHT22;10102;50.828;4.416;2024-02-21T00:43:38;11.10;99.90
19880;DHT22;10102;50.828;4.416;2024-02-21T00:46:06;10.90;99.90
19880;DHT22;10102;50.828;4.416;2024-02-21T00:48:31;11.00;99.90
19880;DHT22;10102;50.828;4.416;2024-02-21T00:50:57;10.90;99.90
19880;DHT22;10102;50.828;4.416;2024-02-21T00:55:49;11.00;99.90
19880;DHT22;10102;50.828;4.416;2024-02-21T00:58:15;11.00;99.90
19880;DHT22;10102;50.828;4.416;2024-02-21T01:00:40;10.60;99.90
19880;DHT22;10102;50.828;4.416;2024-02-21T01:03:06;10.90;99.90
19880;DHT22;10102;50.828;4.416;2024-02-21T01:05:32;10.90;99.90
19880;DHT22;10102;50.828;4.416;2024-02-21T01:07:58;10.90;99.90
19880;DHT22;10102;50.828;4.416;2024-02-21T01:10:24;10.80;99.90
19880;DHT22;10102;50.828;4.416;2024-02-21T01:12:49;10.80;99.90
19880;DHT22;10102;50.828;4.416;2024-02-21T01:15:15;11.00;99.90
19880;DHT22;10102;50.828;4.416;2024-02-21T01:17:40;11.10;99.90
19880;DHT22;10102;50.828;4.416;2024-02-21T01:20:06;10.90;99.90
19880;DHT22;10102;50.828;4.416;2024-02-21T01:22:33;10.80;99.90
19880;DHT22;10102;50.828;4.416;2024-02-21T01:24:58;10.80;99.90
19880;DHT22;10102;50.828;4.416;2024-02-21T01:27:24;10.70;99.90
19880;DHT22;10102;50.828;4.416;2024-02-21T01:29:49;10.80;99.90
19880;DHT22;10102;50.828;4.416;2024-02-21T01:32:16;10.70;99.90
19880;DHT22;10102;50.828;4.416;2024-02-21T01:34:42;10.30;99.90
19880;DHT22;10102;50.828;4.416;2024-02-21T01:37:07;10.70;99.90
19880;DHT22;10102;50.828;4.416;2024-02-21T01:41:59;10.50;99.90
19880;DHT22;10102;50.828;4.416;2024-02-21T01:46:52;10.50;99.90
19880;DHT22;10102;50.828;4.416;2024-02-21T01:49:19;10.50;99.90
19880;DHT22;10102;50.828;4.416;2024-02-21T01:51:46;10.60;99.90
19880;DHT22;10102;50.828;4.416;2024-02-21T01:54:13;10.60;99.90
19880;DHT22;10102;50.828;4.416;2024-02-21T01:56:40;10.60;99.90
19880;DHT22;10102;50.828;4.416;2024-02-21T01:59:06;10.90;99.90
19880;DHT22;10102;50.828;4.416;2024-02-21T02:01:31;10.70;99.90
19880;DHT22;10102;50.828;4.416;2024-02-21T02:03:59;10.60;99.90
19880;DHT22;10102;50.828;4.416;2024-02-21T02:06:25;10.70;99.90
19880;DHT22;10102;50.828;4.416;2024-02-21T02:08:50;10.70;99.90
19880;DHT22;10102;50.828;4.416;2024-02-21T02:11:16;10.60;99.90
19880;DHT22;10102;50.828;4.416;2024-02-21T02:13:42;11.00;99.90
19880;DHT22;10102;50.828;4.416;2024-02-21T02:16:08;10.60;99.90
19880;DHT22;10102;50.828;4.416;2024-02-21T02:18:34;10.60;99.90
19880;DHT22;10102;50.828;4.416;2024-02-21T02:20:59;10.60;99.90
19880;DHT22;10102;50.828;4.416;2024-02-21T02:25:51;10.50;99.90
19880;DHT22;10102;50.828;4.416;2024-02-21T02:28:20;10.40;99.90
19880;DHT22;10102;50.828;4.416;2024-02-21T02:30:46;10.50;99.90
19880;DHT22;10102;50.828;4.416;2024-02-21T02:33:12;10.50;99.90
19880;DHT22;10102;50.828;4.416;2024-02-21T02:38:05;10.60;99.90
19880;DHT22;10102;50.828;4.416;2024-02-21T02:40:35;10.60;99.90
19880;DHT22;10102;50.828;4.416;2024-02-21T02:43:02;10.70;99.90
19880;DHT22;10102;50.828;4.416;2024-02-21T02:45:30;10.70;99.90
19880;DHT22;10102;50.828;4.416;2024-02-21T02:50:26;10.70;99.90
19880;DHT22;10102;50.828;4.416;2024-02-21T02:52:55;10.80;99.90
19880;DHT22;10102;50.828;4.416;2024-02-21T02:55:21;10.70;99.90
19880;DHT22;10102;50.828;4.416;2024-02-21T02:57:48;10.70;99.90
19880;DHT22;10102;50.828;4.416;2024-02-21T03:00:15;10.70;99.90
19880;DHT22;10102;50.828;4.416;2024-02-21T03:02:44;10.80;99.90
19880;DHT22;10102;50.828;4.416;2024-02-21T03:05:15;10.60;99.90
19880;DHT22;10102;50.828;4.416;2024-02-21T03:07:41;10.70;99.90
19880;DHT22;10102;50.828;4.416;2024-02-21T03:10:08;10.70;99.90
19880;DHT22;10102;50.828;4.416;2024-02-21T03:12:34;10.70;99.90
19880;DHT22;10102;50.828;4.416;2024-02-21T03:15:00;10.60;99.90
19880;DHT22;10102;50.828;4.416;2024-02-21T03:17:26;10.50;99.90
19880;DHT22;10102;50.828;4.416;2024-02-21T03:19:54;10.70;99.90
19880;DHT22;10102;50.828;4.416;2024-02-21T03:22:25;10.90;99.90
19880;DHT22;10102;50.828;4.416;2024-02-21T03:24:51;10.80;99.90
19880;DHT22;10102;50.828;4.416;2024-02-21T03:27:16;10.70;99.90
19880;DHT22;10102;50.828;4.416;2024-02-21T03:32:09;10.90;99.90
19880;DHT22;10102;50.828;4.416;2024-02-21T03:37:01;10.80;99.90
19880;DHT22;10102;50.828;4.416;2024-02-21T03:39:27;10.80;99.90
19880;DHT22;10102;50.828;4.416;2024-02-21T03:49:11;10.60;99.90
19880;DHT22;10102;50.828;4.416;2024-02-21T03:51:37;10.70;99.90
19880;DHT22;10102;50.828;4.416;2024-02-21T03:54:02;10.60;99.90
19880;DHT22;10102;50.828;4.416;2024-02-21T03:56:28;10.50;99.90
19880;DHT22;10102;50.828;4.416;2024-02-21T03:58:54;10.70;99.90
19880;DHT22;10102;50.828;4.416;2024-02-21T04:01:19;10.50;99.90
19880;DHT22;10102;50.828;4.416;2024-02-21T04:03:45;10.60;99.90
19880;DHT22;10102;50.828;4.416;2024-02-21T04:06:11;10.40;99.90
19880;DHT22;10102;50.828;4.416;2024-02-21T04:08:36;10.50;99.90
19880;DHT22;10102;50.828;4.416;2024-02-21T04:11:02;10.50;99.90
19880;DHT22;10102;50.828;4.416;2024-02-21T04:13:28;10.50;99.90
19880;DHT22;10102;50.828;4.416;2024-02-21T04:15:54;10.80;99.90
19880;DHT22;10102;50.828;4.416;2024-02-21T04:18:19;10.60;99.90
19880;DHT22;10102;50.828;4.416;2024-02-21T04:20:45;10.50;99.90
19880;DHT22;10102;50.828;4.416;2024-02-21T04:23:11;10.60;99.90
19880;DHT22;10102;50.828;4.416;2024-02-21T04:25:36;10.60;99.90
19880;DHT22;10102;50.828;4.416;2024-02-21T04:28:02;10.50;99.90
19880;DHT22;10102;50.828;4.416;2024-02-21T04:30:28;10.50;99.90
19880;DHT22;10102;50.828;4.416;2024-02-21T04:32:54;10.50;99.90
19880;DHT22;10102;50.828;4.416;2024-02-21T04:37:46;10.30;99.90
19880;DHT22;10102;50.828;4.416;2024-02-21T04:42:38;10.50;99.90
19880;DHT22;10102;50.828;4.416;2024-02-21T04:45:04;10.50;99.90
19880;DHT22;10102;50.828;4.416;2024-02-21T04:47:30;10.70;99.90
19880;DHT22;10102;50.828;4.416;2024-02-21T04:49:56;10.60;99.90
19880;DHT22;10102;50.828;4.416;2024-02-21T04:52:22;10.60;99.90
19880;DHT22;10102;50.828;4.416;2024-02-21T04:54:47;10.60;99.90
19880;DHT22;10102;50.828;4.416;2024-02-21T04:57:13;10.60;99.90
19880;DHT22;10102;50.828;4.416;2024-02-21T04:59:44;10.50;99.90
19880;DHT22;10102;50.828;4.416;2024-02-21T05:02:10;10.40;99.90
19880;DHT22;10102;50.828;4.416;2024-02-21T05:04:36;10.50;99.90
19880;DHT22;10102;50.828;4.416;2024-02-21T05:07:04;10.50;99.90
19880;DHT22;10102;50.828;4.416;2024-02-21T05:11:56;10.50;99.90
19880;DHT22;10102;50.828;4.416;2024-02-21T05:14:21;10.40;99.90
19880;DHT22;10102;50.828;4.416;2024-02-21T05:21:39;10.40;99.90
19880;DHT22;10102;50.828;4.416;2024-02-21T05:24:05;10.40;99.90
19880;DHT22;10102;50.828;4.416;2024-02-21T05:26:31;10.30;99.90
19880;DHT22;10102;50.828;4.416;2024-02-21T05:28:56;10.40;99.90
19880;DHT22;10102;50.828;4.416;2024-02-21T05:31:22;10.40;99.90
19880;DHT22;10102;50.828;4.416;2024-02-21T05:33:48;10.20;99.90
19880;DHT22;10102;50.828;4.416;2024-02-21T05:36:14;10.10;99.90
19880;DHT22;10102;50.828;4.416;2024-02-21T05:41:06;10.10;99.90
19880;DHT22;10102;50.828;4.416;2024-02-21T05:43:31;10.00;99.90
19880;DHT22;10102;50.828;4.416;2024-02-21T05:45:57;10.20;99.90
19880;DHT22;10102;50.828;4.416;2024-02-21T05:48:24;10.20;99.90
19880;DHT22;10102;50.828;4.416;2024-02-21T05:50:50;10.10;99.90
19880;DHT22;10102;50.828;4.416;2024-02-21T05:53:16;10.20;99.90
19880;DHT22;10102;50.828;4.416;2024-02-21T05:55:41;10.30;99.90
19880;DHT22;10102;50.828;4.416;2024-02-21T06:00:37;10.00;99.90
19880;DHT22;10102;50.828;4.416;2024-02-21T06:03:03;10.50;99.90
19880;DHT22;10102;50.828;4.416;2024-02-21T06:05:28;10.50;99.90
19880;DHT22;10102;50.828;4.416;2024-02-21T06:07:54;10.50;99.90
19880;DHT22;10102;50.828;4.416;2024-02-21T06:10:21;10.50;99.90
19880;DHT22;10102;50.828;4.416;2024-02-21T06:12:46;10.40;99.90
19880;DHT22;10102;50.828;4.416;2024-02-21T06:15:12;10.40;99.90
19880;DHT22;10102;50.828;4.416;2024-02-21T06:17:38;10.50;99.90
19880;DHT22;10102;50.828;4.416;2024-02-21T06:20:04;10.50;99.90
19880;DHT22;10102;50.828;4.416;2024-02-21T06:22:30;10.60;99.90
19880;DHT22;10102;50.828;4.416;2024-02-21T06:24:56;10.70;99.90
19880;DHT22;10102;50.828;4.416;2024-02-21T06:27:21;10.60;99.90
19880;DHT22;10102;50.828;4.416;2024-02-21T06:33:09;10.80;99.90
19880;DHT22;10102;50.828;4.416;2024-02-21T06:38:01;10.60;99.90
19880;DHT22;10102;50.828;4.416;2024-02-21T06:50:10;10.50;99.90
19880;DHT22;10102;50.828;4.416;2024-02-21T06:55:03;10.40;99.90
19880;DHT22;10102;50.828;4.416;2024-02-21T06:57:29;10.40;99.90
19880;DHT22;10102;50.828;4.416;2024-02-21T06:59:55;10.40;99.90
19880;DHT22;10102;50.828;4.416;2024-02-21T07:07:12;10.40;99.90
19880;DHT22;10102;50.828;4.416;2024-02-21T07:12:04;10.40;99.90
19880;DHT22;10102;50.828;4.416;2024-02-21T07:14:32;10.20;99.90
19880;DHT22;10102;50.828;4.416;2024-02-21T07:19:24;10.20;99.90
19880;DHT22;10102;50.828;4.416;2024-02-21T07:21:49;10.40;99.90
19880;DHT22;10102;50.828;4.416;2024-02-21T07:24:15;10.40;99.90
19880;DHT22;10102;50.828;4.416;2024-02-21T07:26:42;10.20;99.90
19880;DHT22;10102;50.828;4.416;2024-02-21T07:29:08;10.30;99.90
19880;DHT22;10102;50.828;4.416;2024-02-21T07:31:42;10.20;99.90
19880;DHT22;10102;50.828;4.416;2024-02-21T07:36:34;10.10;99.90
19880;DHT22;10102;50.828;4.416;2024-02-21T07:41:26;10.20;99.90
19880;DHT22;10102;50.828;4.416;2024-02-21T07:43:54;10.30;99.90
19880;DHT22;10102;50.828;4.416;2024-02-21T07:46:19;10.30;99.90
19880;DHT22;10102;50.828;4.416;2024-02-21T07:48:45;10.40;99.90
19880;DHT22;10102;50.828;4.416;2024-02-21T07:51:12;10.40;99.90
19880;DHT22;10102;50.828;4.416;2024-02-21T07:53:39;10.90;99.90
19880;DHT22;10102;50.828;4.416;2024-02-21T07:56:04;10.50;99.90
19880;DHT22;10102;50.828;4.416;2024-02-21T07:58:30;10.50;99.90
19880;DHT22;10102;50.828;4.416;2024-02-21T08:00:56;10.50;99.90
19880;DHT22;10102;50.828;4.416;2024-02-21T08:03:21;10.50;99.90
19880;DHT22;10102;50.828;4.416;2024-02-21T08:13:09;10.30;99.90
19880;DHT22;10102;50.828;4.416;2024-02-21T08:15:35;10.30;99.90
19880;DHT22;10102;50.828;4.416;2024-02-21T08:18:01;10.20;99.90
19880;DHT22;10102;50.828;4.416;2024-02-21T08:27:45;10.20;99.90
19880;DHT22;10102;50.828;4.416;2024-02-21T08:30:11;10.30;99.90
19880;DHT22;10102;50.828;4.416;2024-02-21T08:32:37;10.40;99.90
19880;DHT22;10102;50.828;4.416;2024-02-21T08:35:03;10.40;99.90
19880;DHT22;10102;50.828;4.416;2024-02-21T08:37:31;10.50;99.90
19880;DHT22;10102;50.828;4.416;2024-02-21T08:39:56;10.50;99.90
19880;DHT22;10102;50.828;4.416;2024-02-21T08:42:22;10.50;99.90
19880;DHT22;10102;50.828;4.416;2024-02-21T08:47:13;10.60;99.90
19880;DHT22;10102;50.828;4.416;2024-02-21T08:52:05;10.40;99.90
19880;DHT22;10102;50.828;4.416;2024-02-21T08:54:32;10.40;99.90
19880;DHT22;10102;50.828;4.416;2024-02-21T08:57:01;10.60;99.90
19880;DHT22;10102;50.828;4.416;2024-02-21T08:59:26;10.50;99.90
19880;DHT22;10102;50.828;4.416;2024-02-21T09:01:53;10.50;99.90
19880;DHT22;10102;50.828;4.416;2024-02-21T09:04:18;10.60;99.90
19880;DHT22;10102;50.828;4.416;2024-02-21T09:06:45;10.60;99.90
19880;DHT22;10102;50.828;4.416;2024-02-21T09:09:11;10.60;99.90
19880;DHT22;10102;50.828;4.416;2024-02-21T09:11:38;10.50;99.90
19880;DHT22;10102;50.828;4.416;2024-02-21T09:16:31;10.70;99.90
19880;DHT22;10102;50.828;4.416;2024-02-21T09:18:57;10.60;99.90
19880;DHT22;10102;50.828;4.416;2024-02-21T09:21:23;10.80;99.90
19880;DHT22;10102;50.828;4.416;2024-02-21T09:23:49;10.90;99.90
19880;DHT22;10102;50.828;4.416;2024-02-21T09:26:14;10.90;99.90
19880;DHT22;10102;50.828;4.416;2024-02-21T09:28:42;10.90;99.90
19880;DHT22;10102;50.828;4.416;2024-02-21T09:31:09;10.70;99.90
19880;DHT22;10102;50.828;4.416;2024-02-21T09:33:36;11.00;99.90
19880;DHT22;10102;50.828;4.416;2024-02-21T09:36:03;11.10;99.90
19880;DHT22;10102;50.828;4.416;2024-02-21T09:38:31;11.20;99.90
19880;DHT22;10102;50.828;4.416;2024-02-21T09:41:16;11.30;99.90
19880;DHT22;10102;50.828;4.416;2024-02-21T09:43:45;11.20;99.90
19880;DHT22;10102;50.828;4.416;2024-02-21T09:46:18;11.20;99.90
19880;DHT22;10102;50.828;4.416;2024-02-21T09:49:06;11.40;99.90
19880;DHT22;10102;50.828;4.416;2024-02-21T09:51:37;11.50;99.90
19880;DHT22;10102;50.828;4.416;2024-02-21T09:54:04;11.50;99.90
19880;DHT22;10102;50.828;4.416;2024-02-21T09:56:30;11.50;99.90
19880;DHT22;10102;50.828;4.416;2024-02-21T09:58:56;11.50;99.90
19880;DHT22;10102;50.828;4.416;2024-02-21T10:01:22;11.50;99.90
19880;DHT22;10102;50.828;4.416;2024-02-21T10:03:48;11.40;99.90
19880;DHT22;10102;50.828;4.416;2024-02-21T10:08:41;11.20;99.90
19880;DHT22;10102;50.828;4.416;2024-02-21T10:16:05;11.60;99.90
19880;DHT22;10102;50.828;4.416;2024-02-21T10:21:05;11.80;99.90
19880;DHT22;10102;50.828;4.416;2024-02-21T10:23:42;12.20;99.90
19880;DHT22;10102;50.828;4.416;2024-02-21T10:26:08;11.50;99.90
19880;DHT22;10102;50.828;4.416;2024-02-21T10:31:00;11.60;99.90
19880;DHT22;10102;50.828;4.416;2024-02-21T10:33:26;11.70;99.90
19880;DHT22;10102;50.828;4.416;2024-02-21T10:35:53;11.70;99.90
19880;DHT22;10102;50.828;4.416;2024-02-21T10:38:19;11.70;99.90
19880;DHT22;10102;50.828;4.416;2024-02-21T10:40:46;11.80;99.90
19880;DHT22;10102;50.828;4.416;2024-02-21T10:43:14;11.90;99.90
19880;DHT22;10102;50.828;4.416;2024-02-21T10:45:41;12.00;99.90
19880;DHT22;10102;50.828;4.416;2024-02-21T10:48:20;12.30;99.90
19880;DHT22;10102;50.828;4.416;2024-02-21T10:51:11;11.90;99.90
19880;DHT22;10102;50.828;4.416;2024-02-21T10:53:45;12.20;99.90
19880;DHT22;10102;50.828;4.416;2024-02-21T10:56:21;12.20;99.90
19880;DHT22;10102;50.828;4.416;2024-02-21T10:58:49;12.20;99.90
19880;DHT22;10102;50.828;4.416;2024-02-21T11:03:45;12.20;99.90
19880;DHT22;10102;50.828;4.416;2024-02-21T11:06:12;12.40;99.90
19880;DHT22;10102;50.828;4.416;2024-02-21T11:11:05;12.50;99.90
19880;DHT22;10102;50.828;4.416;2024-02-21T11:13:31;12.60;99.90
19880;DHT22;10102;50.828;4.416;2024-02-21T11:16:10;12.60;99.90
19880;DHT22;10102;50.828;4.416;2024-02-21T11:18:38;12.60;99.90
19880;DHT22;10102;50.828;4.416;2024-02-21T11:23:31;12.30;99.90
19880;DHT22;10102;50.828;4.416;2024-02-21T11:26:09;12.40;99.90
19880;DHT22;10102;50.828;4.416;2024-02-21T11:28:36;12.30;99.90
19880;DHT22;10102;50.828;4.416;2024-02-21T11:31:13;12.30;99.90
19880;DHT22;10102;50.828;4.416;2024-02-21T11:33:42;11.90;99.90
19880;DHT22;10102;50.828;4.416;2024-02-21T11:36:10;12.00;99.90
19880;DHT22;10102;50.828;4.416;2024-02-21T11:38:37;11.80;99.90
19880;DHT22;10102;50.828;4.416;2024-02-21T11:41:03;11.80;99.90
19880;DHT22;10102;50.828;4.416;2024-02-21T11:46:01;11.90;99.90
19880;DHT22;10102;50.828;4.416;2024-02-21T11:48:26;12.10;99.90
19880;DHT22;10102;50.828;4.416;2024-02-21T11:50:54;11.90;99.90
19880;DHT22;10102;50.828;4.416;2024-02-21T11:53:20;11.80;99.90
19880;DHT22;10102;50.828;4.416;2024-02-21T11:55:46;11.80;99.90
19880;DHT22;10102;50.828;4.416;2024-02-21T11:58:12;12.00;99.90
19880;DHT22;10102;50.828;4.416;2024-02-21T12:00:38;11.90;99.90
19880;DHT22;10102;50.828;4.416;2024-02-21T12:03:04;12.00;99.90
19880;DHT22;10102;50.828;4.416;2024-02-21T12:05:30;11.90;99.90
19880;DHT22;10102;50.828;4.416;2024-02-21T12:07:56;11.80;99.90
19880;DHT22;10102;50.828;4.416;2024-02-21T12:12:50;11.70;99.90
19880;DHT22;10102;50.828;4.416;2024-02-21T12:15:18;11.60;99.90
19880;DHT22;10102;50.828;4.416;2024-02-21T12:17:44;11.70;99.90
19880;DHT22;10102;50.828;4.416;2024-02-21T12:20:10;11.60;99.90
19880;DHT22;10102;50.828;4.416;2024-02-21T12:22:41;11.70;99.90
19880;DHT22;10102;50.828;4.416;2024-02-21T12:25:17;11.70;99.90
19880;DHT22;10102;50.828;4.416;2024-02-21T12:27:48;11.80;99.90
19880;DHT22;10102;50.828;4.416;2024-02-21T12:30:15;11.80;99.90
19880;DHT22;10102;50.828;4.416;2024-02-21T12:32:40;12.00;99.90
19880;DHT22;10102;50.828;4.416;2024-02-21T12:35:07;11.90;99.90
19880;DHT22;10102;50.828;4.416;2024-02-21T12:37:33;12.10;99.90
19880;DHT22;10102;50.828;4.416;2024-02-21T12:39:58;12.10;99.90
19880;DHT22;10102;50.828;4.416;2024-02-21T12:42:24;12.10;99.90
19880;DHT22;10102;50.828;4.416;2024-02-21T12:44:54;12.10;99.90
19880;DHT22;10102;50.828;4.416;2024-02-21T12:47:20;12.10;99.90
19880;DHT22;10102;50.828;4.416;2024-02-21T12:49:49;12.10;99.90
19880;DHT22;10102;50.828;4.416;2024-02-21T12:52:15;12.00;99.90
19880;DHT22;10102;50.828;4.416;2024-02-21T12:54:40;12.00;99.90
19880;DHT22;10102;50.828;4.416;2024-02-21T12:57:08;12.10;99.90
19880;DHT22;10102;50.828;4.416;2024-02-21T12:59:33;12.00;99.90
19880;DHT22;10102;50.828;4.416;2024-02-21T13:01:59;12.10;99.90
19880;DHT22;10102;50.828;4.416;2024-02-21T13:04:25;12.10;99.90
19880;DHT22;10102;50.828;4.416;2024-02-21T13:06:50;12.20;99.90
19880;DHT22;10102;50.828;4.416;2024-02-21T13:09:16;12.10;99.90
19880;DHT22;10102;50.828;4.416;2024-02-21T13:11:42;12.10;99.90
19880;DHT22;10102;50.828;4.416;2024-02-21T13:19:06;12.00;99.90
19880;DHT22;10102;50.828;4.416;2024-02-21T13:21:31;11.70;99.90
19880;DHT22;10102;50.828;4.416;2024-02-21T13:23:57;11.90;99.90
19880;DHT22;10102;50.828;4.416;2024-02-21T13:26:23;12.20;99.90
19880;DHT22;10102;50.828;4.416;2024-02-21T13:28:48;11.90;99.90
19880;DHT22;10102;50.828;4.416;2024-02-21T13:31:14;12.00;99.90
19880;DHT22;10102;50.828;4.416;2024-02-21T13:33:42;11.90;99.90
19880;DHT22;10102;50.828;4.416;2024-02-21T13:36:10;12.40;99.90
19880;DHT22;10102;50.828;4.416;2024-02-21T13:38:35;12.10;99.90
19880;DHT22;10102;50.828;4.416;2024-02-21T13:41:01;11.80;99.90
19880;DHT22;10102;50.828;4.416;2024-02-21T13:43:27;11.70;99.90
19880;DHT22;10102;50.828;4.416;2024-02-21T13:46:01;12.00;99.90
19880;DHT22;10102;50.828;4.416;2024-02-21T13:48:36;11.80;99.90
19880;DHT22;10102;50.828;4.416;2024-02-21T13:51:08;11.60;99.90
19880;DHT22;10102;50.828;4.416;2024-02-21T13:53:35;11.60;99.90
19880;DHT22;10102;50.828;4.416;2024-02-21T13:56:01;11.60;99.90
19880;DHT22;10102;50.828;4.416;2024-02-21T13:58:28;11.70;99.90
19880;DHT22;10102;50.828;4.416;2024-02-21T14:00:55;11.80;99.90
19880;DHT22;10102;50.828;4.416;2024-02-21T14:03:22;11.70;99.90
19880;DHT22;10102;50.828;4.416;2024-02-21T14:05:50;11.50;99.90
19880;DHT22;10102;50.828;4.416;2024-02-21T14:08:16;11.80;99.90
19880;DHT22;10102;50.828;4.416;2024-02-21T14:10:42;11.70;99.90
19880;DHT22;10102;50.828;4.416;2024-02-21T14:13:08;11.80;99.90
19880;DHT22;10102;50.828;4.416;2024-02-21T14:15:33;11.80;99.90
19880;DHT22;10102;50.828;4.416;2024-02-21T14:17:59;11.80;99.90
19880;DHT22;10102;50.828;4.416;2024-02-21T14:20:25;11.50;99.90
19880;DHT22;10102;50.828;4.416;2024-02-21T14:22:50;11.40;99.90
19880;DHT22;10102;50.828;4.416;2024-02-21T14:25:16;11.50;99.90
19880;DHT22;10102;50.828;4.416;2024-02-21T14:27:42;11.50;99.90
19880;DHT22;10102;50.828;4.416;2024-02-21T14:30:09;11.40;99.90
19880;DHT22;10102;50.828;4.416;2024-02-21T14:32:36;11.10;99.90
19880;DHT22;10102;50.828;4.416;2024-02-21T14:35:02;11.20;99.90
19880;DHT22;10102;50.828;4.416;2024-02-21T14:37:28;11.20;99.90
19880;DHT22;10102;50.828;4.416;2024-02-21T14:39:53;11.00;99.90
19880;DHT22;10102;50.828;4.416;2024-02-21T14:42:19;10.90;99.90
19880;DHT22;10102;50.828;4.416;2024-02-21T14:44:45;11.00;99.90
19880;DHT22;10102;50.828;4.416;2024-02-21T14:47:10;10.90;99.90
19880;DHT22;10102;50.828;4.416;2024-02-21T14:52:05;10.70;99.90
19880;DHT22;10102;50.828;4.416;2024-02-21T14:54:31;10.80;99.90
19880;DHT22;10102;50.828;4.416;2024-02-21T14:56:56;10.80;99.90
19880;DHT22;10102;50.828;4.416;2024-02-21T14:59:22;10.70;99.90
19880;DHT22;10102;50.828;4.416;2024-02-21T15:01:48;10.80;99.90
19880;DHT22;10102;50.828;4.416;2024-02-21T15:04:14;10.60;99.90
19880;DHT22;10102;50.828;4.416;2024-02-21T15:06:39;10.60;99.90
19880;DHT22;10102;50.828;4.416;2024-02-21T15:09:05;10.70;99.90
19880;DHT22;10102;50.828;4.416;2024-02-21T15:11:32;10.60;99.90
19880;DHT22;10102;50.828;4.416;2024-02-21T15:13:58;10.40;99.90
19880;DHT22;10102;50.828;4.416;2024-02-21T15:16:24;10.50;99.90
19880;DHT22;10102;50.828;4.416;2024-02-21T15:18:49;10.50;99.90
19880;DHT22;10102;50.828;4.416;2024-02-21T15:23:41;10.70;99.90
19880;DHT22;10102;50.828;4.416;2024-02-21T15:28:33;10.60;99.90
19880;DHT22;10102;50.828;4.416;2024-02-21T15:30:59;10.50;99.90
19880;DHT22;10102;50.828;4.416;2024-02-21T15:33:25;10.50;99.90
19880;DHT22;10102;50.828;4.416;2024-02-21T15:35:52;10.50;99.90
19880;DHT22;10102;50.828;4.416;2024-02-21T15:38:18;10.50;99.90
19880;DHT22;10102;50.828;4.416;2024-02-21T15:40:45;10.70;99.90
19880;DHT22;10102;50.828;4.416;2024-02-21T15:43:10;10.50;99.90
19880;DHT22;10102;50.828;4.416;2024-02-21T15:45:36;10.50;99.90
19880;DHT22;10102;50.828;4.416;2024-02-21T15:48:06;10.40;99.90
19880;DHT22;10102;50.828;4.416;2024-02-21T15:50:32;10.20;99.90
19880;DHT22;10102;50.828;4.416;2024-02-21T15:52:57;10.30;99.90
19880;DHT22;10102;50.828;4.416;2024-02-21T16:00:15;10.00;99.90
19880;DHT22;10102;50.828;4.416;2024-02-21T16:05:08;10.20;99.90
19880;DHT22;10102;50.828;4.416;2024-02-21T16:07:37;10.30;99.90
19880;DHT22;10102;50.828;4.416;2024-02-21T16:10:04;10.20;99.90
19880;DHT22;10102;50.828;4.416;2024-02-21T16:12:31;10.00;99.90
19880;DHT22;10102;50.828;4.416;2024-02-21T16:14:57;9.60;99.90
19880;DHT22;10102;50.828;4.416;2024-02-21T16:19:49;10.10;99.90
19880;DHT22;10102;50.828;4.416;2024-02-21T16:22:17;10.20;99.90
19880;DHT22;10102;50.828;4.416;2024-02-21T16:24:43;10.10;99.90
19880;DHT22;10102;50.828;4.416;2024-02-21T16:27:09;10.00;99.90
19880;DHT22;10102;50.828;4.416;2024-02-21T16:29:37;10.00;99.90
19880;DHT22;10102;50.828;4.416;2024-02-21T16:32:04;10.00;99.90
19880;DHT22;10102;50.828;4.416;2024-02-21T16:34:31;10.10;99.90
19880;DHT22;10102;50.828;4.416;2024-02-21T16:39:25;10.00;99.90
19880;DHT22;10102;50.828;4.416;2024-02-21T16:41:51;10.00;99.90
19880;DHT22;10102;50.828;4.416;2024-02-21T16:44:21;10.00;99.90
19880;DHT22;10102;50.828;4.416;2024-02-21T16:46:46;9.90;99.90
19880;DHT22;10102;50.828;4.416;2024-02-21T16:49:12;10.20;99.90
19880;DHT22;10102;50.828;4.416;2024-02-21T16:51:38;10.00;99.90
19880;DHT22;10102;50.828;4.416;2024-02-21T16:54:04;9.80;99.90
19880;DHT22;10102;50.828;4.416;2024-02-21T16:59:01;9.60;99.90
19880;DHT22;10102;50.828;4.416;2024-02-21T17:01:27;10.00;99.90
19880;DHT22;10102;50.828;4.416;2024-02-21T17:03:54;10.40;99.90
19880;DHT22;10102;50.828;4.416;2024-02-21T17:06:20;10.00;99.90
19880;DHT22;10102;50.828;4.416;2024-02-21T17:08:47;9.90;99.90
19880;DHT22;10102;50.828;4.416;2024-02-21T17:11:13;9.90;99.90
19880;DHT22;10102;50.828;4.416;2024-02-21T17:13:39;9.80;99.90
19880;DHT22;10102;50.828;4.416;2024-02-21T17:18:31;9.60;99.90
19880;DHT22;10102;50.828;4.416;2024-02-21T17:20:56;10.00;99.90
19880;DHT22;10102;50.828;4.416;2024-02-21T17:28:14;9.80;99.90
19880;DHT22;10102;50.828;4.416;2024-02-21T17:30:40;9.90;99.90
19880;DHT22;10102;50.828;4.416;2024-02-21T17:33:06;9.80;99.90
19880;DHT22;10102;50.828;4.416;2024-02-21T17:35:34;9.90;99.90
19880;DHT22;10102;50.828;4.416;2024-02-21T17:38:04;9.90;99.90
19880;DHT22;10102;50.828;4.416;2024-02-21T17:40:33;9.90;99.90
19880;DHT22;10102;50.828;4.416;2024-02-21T17:47:51;9.90;99.90
19880;DHT22;10102;50.828;4.416;2024-02-21T17:50:21;10.00;99.90
19880;DHT22;10102;50.828;4.416;2024-02-21T17:52:47;9.90;99.90
19880;DHT22;10102;50.828;4.416;2024-02-21T17:55:12;10.00;99.90
19880;DHT22;10102;50.828;4.416;2024-02-21T17:57:38;9.90;99.90
19880;DHT22;10102;50.828;4.416;2024-02-21T18:02:32;9.90;99.90
19880;DHT22;10102;50.828;4.416;2024-02-21T18:04:58;9.80;99.90
19880;DHT22;10102;50.828;4.416;2024-02-21T18:07:24;9.90;99.90
19880;DHT22;10102;50.828;4.416;2024-02-21T18:09:50;10.00;99.90
19880;DHT22;10102;50.828;4.416;2024-02-21T18:12:16;10.00;99.90
19880;DHT22;10102;50.828;4.416;2024-02-21T18:14:43;10.00;99.90